Terminal Aerodrome Forecast
Issued by NWS Bismarck, ND

Current Version | Previous Version | Text Only | Print | Product List | Glossary On
Versions: 1 2 3 4 5 6 7 8 9 10 11 12 13 14 15 16 17
000
FTUS43 KBIS 110522
TAFBIS
TAF
KBIS 110522Z 1106/1206 30011KT P6SM OVC110 WS020/31055KT
     FM110800 30021G31KT P6SM VCSH BKN050
     FM111100 32022G32KT P6SM VCSH OVC020
     FM111900 33016KT P6SM VCSH OVC020
     FM120100 33011KT P6SM BKN020=

USA.gov is the U.S. government's official web portal to all federal, state and local government web resources and services.